Atlantic, VA

7:48 AM EDT on September 30, 2014 (GMT -0400)
KE5BM-13 | Change Station
CLOSE
Current Station
Personal Weather Station
Location: Wallops Island, VA
Elevation: 43 ft
Nearby Weather Stations

Elev 43 ft 37.92 °N, 75.48 °W | Updated 5 seconds ago

Overcast
Overcast
61.8 °F
Feels Like 61.8 °F
N
0.0
Wind Variable Wind from NW
Gusts 0.0 mph

Today
High -- | Low -- °F
--% Chance of Precip.
Yesterday
High -- | Low -- °F
Precip. -- in
6:56 AM 6:46 PM
Waxing Crescent, 36% visible
Pressure 29.93 in
Visibility 10.0 miles
Clouds Few 3900 ft
Mostly Cloudy 5500 ft
Overcast 9000 ft
Dew Point 61 °F
Humidity 98%
Rainfall 0.01 in
Snow Depth Not available.
UV 0 out of 12
Pollen 2.70 out of 12
Air Quality Not available.
Flu Activity Not available.
METAR KWAL 301054Z AUTO 02003KT 10SM FEW039 BKN055 OVC090 18/17 A2993 RMK AO2 SLP133 T01780167

More Conditions Fewer Conditions

Pressure 29.93 in
Visibility 10.0 miles
Clouds Few 3900 ft
Mostly Cloudy 5500 ft
Overcast 9000 ft
Dew Point 61 °F
Humidity 98%
Rainfall 0.01 in
Snow Depth Not available.
UV 0 out of 12
Pollen 2.70 out of 12
Air Quality Not available.
Flu Activity Not available.
METAR KWAL 301054Z AUTO 02003KT 10SM FEW039 BKN055 OVC090 18/17 A2993 RMK AO2 SLP133 T01780167

More Conditions Fewer Conditions

10-Day Weather Forecast

Almanac

Astronomy

Sep. 30, 2014 Rise Set
Actual Time 6:56 AM EDT 6:46 PM EDT
Civil Twilight 6:30 AM EDT 7:12 PM EDT
Nautical Twilight 6:00 AM EDT 7:43 PM EDT
Astronomical Twilight 5:29 AM EDT 8:13 PM EDT
Moon 12:58 PM EDT 11:19 PM EDT
Length of Visible Light 12h 42m
Length of Day
11h 49m
Tomorrow will be 2m 25s shorter.
Waxing Crescent, 36% of the Moon is Illuminated
Today
Waxing Crescent
Oct 1
First Quarter
Oct 8
Full
Oct 15
Last Quarter
Oct 23
New

Today's Extremes

State Highs State Lows

Community

WunderPhotos

Upload Photos

1,757,618 photos uploaded!

Nearby

Snow Depth

Station Depth Elevation
No new snow has been reported.

Earthquake Activity

City Distance Mag. Time & Date
No recent earthquake activity has been reported nearby.
Minimum magnitude displayed is 2.5.

Coastal Water Temperatures

Place Temperature
Wachapreague, VA 72.0 °F
Ocean City Inlet, MD 71.1 °F
Kiptopeke, VA 75.9 °F
Bishops Head, MD 70.0 °F
Chesapeake Bay Bridge Tunnel, VA 72.0 °F
Cambridge, MD 71.1 °F

Nearby Weather Stations